createdAt,value
2023-05-24T00:00:01.660Z,11.07
2023-05-24T00:02:28.093Z,9.05
2023-05-24T00:04:54.592Z,14.05
2023-05-24T00:07:21.026Z,11.43
2023-05-24T00:09:47.416Z,8.27
2023-05-24T00:12:13.774Z,9.65
2023-05-24T00:14:40.245Z,9.43
2023-05-24T00:17:06.602Z,16.40
2023-05-24T00:19:32.953Z,10.45
2023-05-24T00:21:59.366Z,10.38
2023-05-24T00:24:25.816Z,7.30
2023-05-24T00:26:52.141Z,10.45
2023-05-24T00:29:18.487Z,6.45
2023-05-24T00:31:44.895Z,9.25
2023-05-24T00:34:11.273Z,5.47
2023-05-24T00:36:38.118Z,8.57
2023-05-24T00:39:04.571Z,10.30
2023-05-24T00:41:30.944Z,5.53
2023-05-24T00:43:57.306Z,9.38
2023-05-24T00:46:34.404Z,12.13
2023-05-24T00:49:01.651Z,9.82
2023-05-24T00:51:28.482Z,8.35
2023-05-24T00:53:55.841Z,7.00
2023-05-24T00:56:22.981Z,9.77
2023-05-24T00:58:54.327Z,11.02
2023-05-24T01:01:20.720Z,10.27
2023-05-24T01:03:47.315Z,15.27
2023-05-24T01:06:15.874Z,8.55
2023-05-24T01:08:50.323Z,7.40
2023-05-24T01:11:53.570Z,6.03
2023-05-24T01:15:10.160Z,10.10
2023-05-24T01:17:46.152Z,7.82
2023-05-24T01:20:16.070Z,7.80
2023-05-24T01:23:06.306Z,12.93
2023-05-24T01:26:17.536Z,13.57
2023-05-24T01:28:46.349Z,10.07
2023-05-24T01:31:14.430Z,10.45
2023-05-24T01:33:43.072Z,9.15
2023-05-24T01:36:09.575Z,8.35
2023-05-24T01:38:37.633Z,8.18
2023-05-24T01:41:34.861Z,11.60
2023-05-24T01:44:44.742Z,9.98
2023-05-24T01:47:34.316Z,9.15
2023-05-24T01:50:14.464Z,11.40
2023-05-24T01:52:44.064Z,8.95
2023-05-24T01:55:13.434Z,7.03
2023-05-24T01:57:43.241Z,5.63
2023-05-24T02:00:11.323Z,14.63
2023-05-24T02:02:38.222Z,6.90
2023-05-24T02:05:05.310Z,15.10
2023-05-24T02:07:31.705Z,8.82
2023-05-24T02:09:58.095Z,5.95
2023-05-24T02:12:24.487Z,9.82
2023-05-24T02:14:51.020Z,12.55
2023-05-24T02:17:18.198Z,11.23
2023-05-24T02:19:44.573Z,13.15
2023-05-24T02:22:11.026Z,12.18
2023-05-24T02:24:37.715Z,11.65
2023-05-24T02:27:04.175Z,6.47
2023-05-24T02:29:30.513Z,14.93
2023-05-24T02:31:56.916Z,10.57
2023-05-24T02:34:24.350Z,12.10
2023-05-24T02:36:51.908Z,11.63
2023-05-24T02:39:18.371Z,9.55
2023-05-24T02:41:44.733Z,9.73
2023-05-24T02:44:11.858Z,14.88
2023-05-24T02:46:38.400Z,14.40
2023-05-24T02:49:05.173Z,18.05
2023-05-24T02:51:32.843Z,12.32
2023-05-24T02:53:59.264Z,14.05
2023-05-24T02:56:26.487Z,16.92
2023-05-24T02:58:54.242Z,11.60
2023-05-24T03:01:21.636Z,14.95
2023-05-24T03:03:48.283Z,12.68
2023-05-24T03:06:15.327Z,11.65
2023-05-24T03:08:42.157Z,12.65
2023-05-24T03:11:08.508Z,13.02
2023-05-24T03:13:34.943Z,15.45
2023-05-24T03:16:01.480Z,12.48
2023-05-24T03:18:27.886Z,10.68
2023-05-24T03:20:54.228Z,15.80
2023-05-24T03:23:20.558Z,15.38
2023-05-24T03:25:46.910Z,17.67
2023-05-24T03:28:14.606Z,16.50
2023-05-24T03:30:41.194Z,12.43
2023-05-24T03:33:07.932Z,13.07
2023-05-24T03:35:34.311Z,18.33
2023-05-24T03:38:00.655Z,13.77
2023-05-24T03:40:29.521Z,19.00
2023-05-24T03:42:56.027Z,16.80
2023-05-24T03:45:34.464Z,16.48
2023-05-24T03:48:05.482Z,15.40
2023-05-24T03:50:31.925Z,12.93
2023-05-24T03:52:58.298Z,13.40
2023-05-24T03:55:24.707Z,10.52
2023-05-24T03:57:51.261Z,10.65
2023-05-24T04:00:17.970Z,13.43
2023-05-24T04:02:44.497Z,15.30
2023-05-24T04:05:11.025Z,15.57
2023-05-24T04:07:37.655Z,10.70
2023-05-24T04:10:05.875Z,8.50
2023-05-24T04:12:32.521Z,13.05
2023-05-24T04:15:00.294Z,9.68
2023-05-24T04:17:29.379Z,13.95
2023-05-24T04:19:56.127Z,14.18
2023-05-24T04:22:23.780Z,12.95
2023-05-24T04:24:52.054Z,17.13
2023-05-24T04:27:18.493Z,16.23
2023-05-24T04:29:49.824Z,17.27
2023-05-24T04:32:17.691Z,11.90
2023-05-24T04:34:45.856Z,8.70
2023-05-24T04:37:13.783Z,13.95
2023-05-24T04:39:40.813Z,6.13
2023-05-24T04:42:07.695Z,13.35
2023-05-24T04:44:34.066Z,11.73
2023-05-24T04:47:02.723Z,16.35
2023-05-24T04:49:29.928Z,10.80
2023-05-24T04:51:56.980Z,19.55
2023-05-24T04:54:24.005Z,9.93
2023-05-24T04:56:50.376Z,12.32
2023-05-24T04:59:16.712Z,10.82
2023-05-24T05:01:43.181Z,14.27
2023-05-24T05:04:09.758Z,10.85
2023-05-24T05:06:38.809Z,14.55
2023-05-24T05:09:14.564Z,12.85
2023-05-24T05:11:41.448Z,11.80
2023-05-24T05:14:09.472Z,11.25
2023-05-24T05:16:36.703Z,10.95
2023-05-24T05:19:06.286Z,12.63
2023-05-24T05:21:33.916Z,12.43
2023-05-24T05:24:01.668Z,13.02
2023-05-24T05:26:28.630Z,15.52
2023-05-24T05:28:55.702Z,12.88
2023-05-24T05:31:22.265Z,16.95
2023-05-24T05:33:49.008Z,13.52
2023-05-24T05:36:15.943Z,9.70
2023-05-24T05:38:42.446Z,14.48
2023-05-24T05:41:09.004Z,15.18
2023-05-24T05:43:35.649Z,10.63
2023-05-24T05:46:02.069Z,9.43
2023-05-24T05:48:28.449Z,13.15
2023-05-24T05:50:54.863Z,11.45
2023-05-24T05:53:21.326Z,10.60
2023-05-24T05:55:47.878Z,19.40
2023-05-24T05:58:14.294Z,17.77
2023-05-24T06:00:41.166Z,12.32
2023-05-24T06:03:07.867Z,16.90
2023-05-24T06:05:34.377Z,11.20
2023-05-24T06:08:01.005Z,14.88
2023-05-24T06:10:27.702Z,12.55
2023-05-24T06:12:54.073Z,11.80
2023-05-24T06:15:22.465Z,15.18
2023-05-24T06:17:50.211Z,19.08
2023-05-24T06:20:16.927Z,14.73
2023-05-24T06:22:43.677Z,16.15
2023-05-24T06:25:10.156Z,17.95
2023-05-24T06:27:36.609Z,14.23
2023-05-24T06:30:03.599Z,16.30
2023-05-24T06:32:30.004Z,15.80
2023-05-24T06:34:56.464Z,13.35
2023-05-24T06:37:25.391Z,11.27
2023-05-24T06:39:51.801Z,16.13
2023-05-24T06:42:18.280Z,11.23
2023-05-24T06:44:44.648Z,16.83
2023-05-24T06:47:11.427Z,19.92
2023-05-24T06:49:37.999Z,12.98
2023-05-24T06:52:04.930Z,17.13
2023-05-24T06:54:31.593Z,19.35
2023-05-24T06:56:58.843Z,15.75
2023-05-24T06:59:25.621Z,12.88
2023-05-24T07:01:58.247Z,12.73
2023-05-24T07:04:26.014Z,10.88
2023-05-24T07:06:52.744Z,16.23
2023-05-24T07:09:19.695Z,9.40
2023-05-24T07:11:46.079Z,14.80
2023-05-24T07:14:12.491Z,11.27
2023-05-24T07:16:38.900Z,13.15
2023-05-24T07:19:05.316Z,21.90
2023-05-24T07:21:31.798Z,14.93
2023-05-24T07:23:58.228Z,19.15
2023-05-24T07:26:24.628Z,14.73
2023-05-24T07:28:51.451Z,14.77
2023-05-24T07:31:17.834Z,13.75
2023-05-24T07:33:44.201Z,12.77
2023-05-24T07:36:10.652Z,12.40
2023-05-24T07:38:37.070Z,17.33
2023-05-24T07:41:04.463Z,15.27
2023-05-24T07:43:30.899Z,12.02
2023-05-24T07:45:57.309Z,12.88
2023-05-24T07:48:24.127Z,11.15
2023-05-24T07:50:51.961Z,13.00
2023-05-24T07:53:19.372Z,9.15
2023-05-24T07:55:46.469Z,13.52
2023-05-24T07:58:12.908Z,9.18
2023-05-24T08:00:39.576Z,16.75
2023-05-24T08:03:06.400Z,11.63
2023-05-24T08:05:32.928Z,13.63
2023-05-24T08:07:59.417Z,9.68
2023-05-24T08:10:25.875Z,13.60
2023-05-24T08:12:54.745Z,10.98
2023-05-24T08:15:21.410Z,14.95
2023-05-24T08:17:49.167Z,10.32
2023-05-24T08:20:18.166Z,8.63
2023-05-24T08:22:44.783Z,10.85
2023-05-24T08:25:14.301Z,10.07
2023-05-24T08:27:40.663Z,11.00
2023-05-24T08:30:08.326Z,12.60
2023-05-24T08:32:34.794Z,9.65
2023-05-24T08:35:17.607Z,12.73
2023-05-24T08:37:46.008Z,11.10
2023-05-24T08:40:12.641Z,10.98
2023-05-24T08:42:39.599Z,11.35
2023-05-24T08:45:11.159Z,8.30
2023-05-24T08:47:38.359Z,12.27
2023-05-24T08:50:06.212Z,13.45
2023-05-24T08:52:33.218Z,10.85
2023-05-24T08:55:00.373Z,8.02
2023-05-24T08:57:32.446Z,15.90
2023-05-24T08:59:59.140Z,8.27
2023-05-24T09:02:26.725Z,11.38
2023-05-24T09:04:53.434Z,11.27
2023-05-24T09:07:24.105Z,8.38
2023-05-24T09:10:01.131Z,7.53
2023-05-24T09:12:37.304Z,8.45
2023-05-24T09:15:06.903Z,8.18
2023-05-24T09:17:35.912Z,10.00
2023-05-24T09:20:06.686Z,8.63
2023-05-24T09:22:35.781Z,9.63
2023-05-24T09:25:05.660Z,8.63
2023-05-24T09:27:34.355Z,10.30
2023-05-24T09:30:01.643Z,10.25
2023-05-24T09:32:28.710Z,7.78
2023-05-24T09:34:57.848Z,10.10
2023-05-24T09:37:31.811Z,6.03
2023-05-24T09:39:59.319Z,5.63
2023-05-24T09:42:28.239Z,5.90
2023-05-24T09:45:06.687Z,6.55
2023-05-24T09:47:34.774Z,8.57
2023-05-24T09:50:02.199Z,5.35
2023-05-24T09:52:28.913Z,10.27
2023-05-24T09:54:55.873Z,6.93
2023-05-24T09:57:25.835Z,8.70
2023-05-24T09:59:52.869Z,6.03
2023-05-24T10:02:23.690Z,8.10
2023-05-24T10:05:00.808Z,4.53
2023-05-24T10:07:28.471Z,6.32
2023-05-24T10:09:55.506Z,8.07
2023-05-24T10:12:23.103Z,8.60
2023-05-24T10:14:51.706Z,7.15
2023-05-24T10:17:18.216Z,10.30
2023-05-24T10:19:44.877Z,10.52
2023-05-24T10:22:14.016Z,6.32
2023-05-24T10:24:45.781Z,10.20
2023-05-24T10:27:21.036Z,9.27
2023-05-24T10:29:54.999Z,10.27
2023-05-24T10:32:24.397Z,9.27
2023-05-24T10:34:51.635Z,9.43
2023-05-24T10:37:18.184Z,7.45
2023-05-24T10:39:44.696Z,8.10
2023-05-24T10:42:13.376Z,6.65
2023-05-24T10:44:39.855Z,8.55
2023-05-24T10:47:15.221Z,7.63
2023-05-24T10:49:52.964Z,5.57
2023-05-24T10:52:20.036Z,7.50
2023-05-24T10:55:04.824Z,5.05
2023-05-24T10:57:34.437Z,8.25
2023-05-24T11:00:34.681Z,8.70
2023-05-24T11:03:03.974Z,5.80
2023-05-24T11:05:51.598Z,4.00
2023-05-24T11:08:33.101Z,7.25
2023-05-24T11:13:40.709Z,6.20
2023-05-24T11:16:07.535Z,7.38
2023-05-24T11:18:38.433Z,8.82
2023-05-24T11:21:06.503Z,8.73
2023-05-24T11:23:34.879Z,14.55
2023-05-24T11:26:03.505Z,8.07
2023-05-24T11:28:30.671Z,7.72
2023-05-24T11:30:57.295Z,6.13
2023-05-24T11:33:24.331Z,7.00
2023-05-24T11:35:51.976Z,5.50
2023-05-24T11:38:19.357Z,5.60
2023-05-24T11:40:47.263Z,12.60
2023-05-24T11:43:17.026Z,7.95
2023-05-24T11:45:49.176Z,7.93
2023-05-24T11:48:16.412Z,8.10
2023-05-24T11:53:15.432Z,7.75
2023-05-24T11:55:43.188Z,8.38
2023-05-24T11:58:32.597Z,12.20
2023-05-24T12:00:59.037Z,7.30
2023-05-24T12:03:25.490Z,4.63
2023-05-24T12:05:52.722Z,8.13
2023-05-24T12:08:20.225Z,7.20
2023-05-24T12:10:48.583Z,8.77
2023-05-24T12:13:23.294Z,8.05
2023-05-24T12:15:58.012Z,6.18
2023-05-24T12:18:28.765Z,8.00
2023-05-24T12:20:55.311Z,9.00
2023-05-24T12:23:28.445Z,6.15
2023-05-24T12:26:01.907Z,6.38
2023-05-24T12:28:36.608Z,8.57
2023-05-24T12:31:04.501Z,8.52
2023-05-24T12:33:31.517Z,6.05
2023-05-24T12:35:58.781Z,9.27
2023-05-24T12:38:26.009Z,6.00
2023-05-24T12:41:08.158Z,7.32
2023-05-24T12:43:39.404Z,8.07
2023-05-24T12:46:08.121Z,10.32
2023-05-24T12:48:35.143Z,5.95
2023-05-24T12:51:02.109Z,11.32
2023-05-24T12:53:28.713Z,5.60
2023-05-24T12:55:55.968Z,9.70
2023-05-24T12:58:22.443Z,8.18
2023-05-24T13:00:50.448Z,5.97
2023-05-24T13:03:16.970Z,5.35
2023-05-24T13:05:43.716Z,8.52
2023-05-24T13:08:10.136Z,7.80
2023-05-24T13:10:37.197Z,10.23
2023-05-24T13:13:06.136Z,8.15
2023-05-24T13:15:32.537Z,9.23
2023-05-24T13:17:59.446Z,12.45
2023-05-24T13:20:26.410Z,7.90
2023-05-24T13:22:53.417Z,8.32
2023-05-24T13:25:22.377Z,7.82
2023-05-24T13:27:48.926Z,8.48
2023-05-24T13:30:17.066Z,6.53
2023-05-24T13:32:43.465Z,6.05
2023-05-24T13:35:09.935Z,5.70
2023-05-24T13:37:36.278Z,7.22
2023-05-24T13:40:03.057Z,6.72
2023-05-24T13:42:29.586Z,6.93
2023-05-24T13:44:57.812Z,7.95
2023-05-24T13:47:38.816Z,6.72
2023-05-24T13:50:07.153Z,8.07
2023-05-24T13:52:33.678Z,6.43
2023-05-24T13:55:00.330Z,4.82
2023-05-24T13:57:33.692Z,9.43
2023-05-24T14:00:10.455Z,11.43
2023-05-24T14:02:37.731Z,11.90
2023-05-24T14:05:21.655Z,9.55
2023-05-24T14:07:51.977Z,8.55
2023-05-24T14:10:20.906Z,7.13
2023-05-24T14:12:53.640Z,7.75
2023-05-24T14:15:26.275Z,4.85
2023-05-24T14:17:52.755Z,3.97
2023-05-24T14:20:19.299Z,8.63
2023-05-24T14:22:45.898Z,7.90
2023-05-24T14:25:12.280Z,6.13
2023-05-24T14:27:40.071Z,6.85
2023-05-24T14:30:08.068Z,6.00
2023-05-24T14:32:34.460Z,6.68
2023-05-24T14:35:01.005Z,6.55
2023-05-24T14:37:27.705Z,5.65
2023-05-24T14:39:55.310Z,7.22
2023-05-24T14:42:21.744Z,5.28
2023-05-24T14:44:48.092Z,6.82
2023-05-24T14:47:14.510Z,5.00
2023-05-24T14:49:40.850Z,10.85
2023-05-24T14:52:07.332Z,8.45
2023-05-24T14:54:33.715Z,5.53
2023-05-24T14:57:00.053Z,6.50
2023-05-24T14:59:26.655Z,4.85
2023-05-24T15:01:53.031Z,5.10
2023-05-24T15:04:19.580Z,7.40
2023-05-24T15:06:46.146Z,7.47
2023-05-24T15:09:13.275Z,4.43
2023-05-24T15:11:39.633Z,4.95
2023-05-24T15:14:06.064Z,4.68
2023-05-24T15:16:32.440Z,5.90
2023-05-24T15:18:58.838Z,5.10
2023-05-24T15:21:25.193Z,7.13
2023-05-24T15:23:51.578Z,5.57
2023-05-24T15:26:18.026Z,6.93
2023-05-24T15:28:44.460Z,4.93
2023-05-24T15:31:11.155Z,7.93
2023-05-24T15:33:37.660Z,4.55
2023-05-24T15:36:04.641Z,6.13
2023-05-24T15:38:31.071Z,4.82
2023-05-24T15:40:57.451Z,7.10
2023-05-24T15:43:23.828Z,5.80
2023-05-24T15:45:50.751Z,5.43
2023-05-24T15:48:17.099Z,5.57
2023-05-24T15:51:22.120Z,6.15
2023-05-24T15:53:30.486Z,6.65
2023-05-24T15:55:57.335Z,7.93
2023-05-24T15:58:23.711Z,7.63
2023-05-24T16:00:51.126Z,6.28
2023-05-24T16:03:17.606Z,7.95
2023-05-24T16:05:44.129Z,8.73
2023-05-24T16:08:10.542Z,8.88
2023-05-24T16:10:36.978Z,7.13
2023-05-24T16:13:03.389Z,6.85
2023-05-24T16:15:30.292Z,6.40
2023-05-24T16:17:56.736Z,7.32
2023-05-24T16:20:23.178Z,6.55
2023-05-24T16:22:50.372Z,6.50
2023-05-24T16:25:17.119Z,14.93
2023-05-24T16:27:43.501Z,7.38
2023-05-24T16:30:10.348Z,6.80
2023-05-24T16:32:36.822Z,5.25
2023-05-24T16:35:03.346Z,5.30
2023-05-24T16:37:29.751Z,8.48
2023-05-24T16:39:57.204Z,5.95
2023-05-24T16:42:23.591Z,4.60
2023-05-24T16:44:49.985Z,10.15
2023-05-24T16:47:16.391Z,8.50
2023-05-24T16:49:42.803Z,7.00
2023-05-24T16:52:09.258Z,13.77
2023-05-24T16:54:35.805Z,5.22
2023-05-24T16:57:02.306Z,6.32
2023-05-24T16:59:28.698Z,20.30
2023-05-24T17:01:55.104Z,12.18
2023-05-24T17:04:21.505Z,4.18
2023-05-24T17:06:47.892Z,6.70
2023-05-24T17:09:14.310Z,6.15
2023-05-24T17:11:40.693Z,4.15
2023-05-24T17:14:07.113Z,7.05
2023-05-24T17:16:33.551Z,4.75
2023-05-24T17:19:00.033Z,5.10
2023-05-24T17:21:30.613Z,3.35
2023-05-24T17:23:57.126Z,5.85
2023-05-24T17:26:24.319Z,6.68
2023-05-24T17:28:50.839Z,4.57
2023-05-24T17:31:17.312Z,6.05
2023-05-24T17:33:43.957Z,6.90
2023-05-24T17:36:10.536Z,5.10
2023-05-24T17:38:37.710Z,6.97
2023-05-24T17:41:07.295Z,5.70
2023-05-24T17:43:33.759Z,4.35
2023-05-24T17:46:06.540Z,5.85
2023-05-24T17:48:34.682Z,4.93
2023-05-24T17:51:07.068Z,5.40
2023-05-24T17:53:35.114Z,6.05
2023-05-24T17:56:02.828Z,4.78
2023-05-24T17:58:30.838Z,8.88
2023-05-24T18:00:57.271Z,5.90
2023-05-24T18:03:24.038Z,4.32
2023-05-24T18:05:50.588Z,6.15
2023-05-24T18:08:17.028Z,7.85
2023-05-24T18:10:43.386Z,7.07
2023-05-24T18:13:09.778Z,6.80
2023-05-24T18:15:36.429Z,5.55
2023-05-24T18:18:03.354Z,4.28
2023-05-24T18:20:30.052Z,7.85
2023-05-24T18:22:56.456Z,6.80
2023-05-24T18:25:22.852Z,8.10
2023-05-24T18:27:49.248Z,8.98
2023-05-24T18:30:17.250Z,5.93
2023-05-24T18:32:55.995Z,4.28
2023-05-24T18:35:30.627Z,7.65
2023-05-24T18:37:57.122Z,6.43
2023-05-24T18:40:23.543Z,6.25
2023-05-24T18:42:53.432Z,7.15
2023-05-24T18:45:19.823Z,6.45
2023-05-24T18:47:47.025Z,4.82
2023-05-24T18:50:13.530Z,9.57
2023-05-24T18:52:39.935Z,5.30
2023-05-24T18:55:10.497Z,6.72
2023-05-24T18:57:37.801Z,5.20
2023-05-24T19:00:07.986Z,6.90
2023-05-24T19:02:44.052Z,4.45
2023-05-24T19:05:10.833Z,10.10
2023-05-24T19:07:37.181Z,6.78
2023-05-24T19:10:04.423Z,9.35
2023-05-24T19:12:30.911Z,8.35
2023-05-24T19:14:57.390Z,4.70
2023-05-24T19:17:24.893Z,5.07
2023-05-24T19:19:51.728Z,7.20
2023-05-24T19:22:18.167Z,9.43
2023-05-24T19:24:44.553Z,8.25
2023-05-24T19:27:11.081Z,6.70
2023-05-24T19:29:39.592Z,5.80
2023-05-24T19:32:07.127Z,3.85
2023-05-24T19:34:35.173Z,6.22
2023-05-24T19:37:01.697Z,6.03
2023-05-24T19:39:28.306Z,6.22
2023-05-24T19:41:54.709Z,8.15
2023-05-24T19:44:21.522Z,7.22
2023-05-24T19:46:47.868Z,5.80
2023-05-24T19:49:14.285Z,6.95
2023-05-24T19:51:40.736Z,4.93
2023-05-24T19:54:09.117Z,6.35
2023-05-24T19:56:36.093Z,5.35
2023-05-24T19:59:02.584Z,7.18
2023-05-24T20:01:29.083Z,10.30
2023-05-24T20:03:55.661Z,8.45
2023-05-24T20:06:22.172Z,6.22
2023-05-24T20:08:48.780Z,6.90
2023-05-24T20:11:15.298Z,5.80
2023-05-24T20:13:41.717Z,5.82
2023-05-24T20:16:08.139Z,8.88
2023-05-24T20:18:35.324Z,6.88
2023-05-24T20:21:02.425Z,5.60
2023-05-24T20:23:28.878Z,5.13
2023-05-24T20:25:55.773Z,9.25
2023-05-24T20:28:30.934Z,5.20
2023-05-24T20:30:58.738Z,6.88
2023-05-24T20:33:25.139Z,8.00
2023-05-24T20:35:52.940Z,3.47
2023-05-24T20:38:19.361Z,6.30
2023-05-24T20:40:46.302Z,10.13
2023-05-24T20:43:12.740Z,4.95
2023-05-24T20:45:39.181Z,7.90
2023-05-24T20:48:05.944Z,6.35
2023-05-24T20:50:32.335Z,8.45
2023-05-24T20:52:58.686Z,6.75
2023-05-24T20:55:26.767Z,6.07
2023-05-24T20:57:53.571Z,6.95
2023-05-24T21:00:19.958Z,4.97
2023-05-24T21:02:46.633Z,8.95
2023-05-24T21:05:13.144Z,5.85
2023-05-24T21:07:39.690Z,6.75
2023-05-24T21:10:07.540Z,5.63
2023-05-24T21:12:33.922Z,5.35
2023-05-24T21:15:00.347Z,4.95
2023-05-24T21:17:26.789Z,7.53
2023-05-24T21:19:53.183Z,9.27
2023-05-24T21:22:19.595Z,5.97
2023-05-24T21:24:45.968Z,7.78
2023-05-24T21:27:12.366Z,8.98
2023-05-24T21:29:41.151Z,9.30
2023-05-24T21:32:07.486Z,7.55
2023-05-24T21:34:33.870Z,5.20
2023-05-24T21:37:01.067Z,8.40
2023-05-24T21:39:27.486Z,8.65
2023-05-24T21:41:53.834Z,8.23
2023-05-24T21:44:20.203Z,6.25
2023-05-24T21:46:46.602Z,5.13
2023-05-24T21:49:13.043Z,8.13
2023-05-24T21:51:39.378Z,7.22
2023-05-24T21:54:06.096Z,5.82
2023-05-24T21:56:32.474Z,9.60
2023-05-24T21:58:58.842Z,7.93
2023-05-24T22:01:25.210Z,7.00
2023-05-24T22:03:51.802Z,4.47
2023-05-24T22:06:18.242Z,7.82
2023-05-24T22:08:44.614Z,9.52
2023-05-24T22:11:11.054Z,9.63
2023-05-24T22:13:37.423Z,6.53
2023-05-24T22:16:03.926Z,8.68
2023-05-24T22:18:32.532Z,5.90
2023-05-24T22:20:58.856Z,8.95
2023-05-24T22:23:26.104Z,7.10
2023-05-24T22:25:52.540Z,7.85
2023-05-24T22:28:19.934Z,7.35
2023-05-24T22:30:49.393Z,7.55
2023-05-24T22:33:16.327Z,8.40
2023-05-24T22:35:43.672Z,5.53
2023-05-24T22:38:10.359Z,8.15
2023-05-24T22:40:38.704Z,5.30
2023-05-24T22:43:05.262Z,6.85
2023-05-24T22:45:31.766Z,7.75
2023-05-24T22:47:58.317Z,5.63
2023-05-24T22:50:25.876Z,6.55
2023-05-24T22:52:53.535Z,7.47
2023-05-24T22:55:19.876Z,11.52
2023-05-24T22:57:46.263Z,6.18
2023-05-24T23:00:13.100Z,9.00
2023-05-24T23:02:39.462Z,8.13
2023-05-24T23:05:06.488Z,7.57
2023-05-24T23:07:37.425Z,6.70
2023-05-24T23:10:04.202Z,6.13
2023-05-24T23:12:30.677Z,8.77
2023-05-24T23:14:58.230Z,7.07
2023-05-24T23:17:24.800Z,12.68
2023-05-24T23:19:51.296Z,11.13
2023-05-24T23:22:23.323Z,6.47
2023-05-24T23:24:49.697Z,9.50
2023-05-24T23:27:16.155Z,7.07
2023-05-24T23:29:42.549Z,7.78
2023-05-24T23:32:09.638Z,10.88
2023-05-24T23:34:36.941Z,9.32
2023-05-24T23:37:04.374Z,8.90
2023-05-24T23:39:30.788Z,6.05
2023-05-24T23:41:57.241Z,6.60
2023-05-24T23:44:23.688Z,6.57
2023-05-24T23:46:51.408Z,9.05
2023-05-24T23:49:18.374Z,9.77
2023-05-24T23:51:44.813Z,11.15
2023-05-24T23:54:11.295Z,6.43
2023-05-24T23:56:40.737Z,5.95
2023-05-24T23:59:07.503Z,7.20
